Leo+barja 1556 — YP3204 — position and weather

sailwx.info

Track history (hours):
 
Tides and Currents Weather Stations Pressure Air Temp Water Temp Dewpoint Dewpoint Depression Visibility Wind Speed Wind Dir Waves Ship Positions

Leo+barja 1556

Last reported at 2018-Jul-18 08:58 UTC. Time now 2018-Jul-18 08:59 UTC.
Position N 44°15' E 028°17'.

Length 77 m; draft 1 m.

Type: Cargo ship. MMSI: 264153204.

Date/timePositionNaut miles runAvg speedWind from/ knotsBaromVisibWave heightAir tempDewpointWater temp
2018-Jul-18 08:58N 44°15' E 028°17'3 5.6
2018-Jul-18 08:29N 44°15' E 028°21'3 5.7
2018-Jul-18 08:00N 44°13' E 028°23'9 5.1
2018-Jul-18 06:17N 44°06' E 028°31'2 7.7
2018-Jul-18 06:00N 44°06' E 028°34'2 3.3
2018-Jul-18 05:30N 44°06' E 028°36'1 1.3
2018-Jul-18 05:00N 44°06' E 028°37'2 3.4
2018-Jul-18 04:29N 44°07' E 028°39'0 0.4
2018-Jul-18 04:00N 44°07' E 028°39'1 1.8
2018-Jul-18 03:30N 44°08' E 028°39'1 2.3
2018-Jul-18 03:00N 44°10' E 028°39'0 0.0
2018-Jul-17 18:07N 44°09' E 028°39'0 0.0
2018-Jul-17 18:00N 44°09' E 028°39'0 0.0
2018-Jul-17 17:30N 44°09' E 028°39'0 0.0
2018-Jul-17 17:00N 44°09' E 028°39'0 0.0
2018-Jul-17 16:30N 44°09' E 028°39'0 0.0
2018-Jul-16 20:55N 44°09' E 028°39'0 0.0
2018-Jul-16 20:31N 44°09' E 028°39'0 0.0
2018-Jul-16 20:01N 44°09' E 028°39'0 0.0
2018-Jul-16 19:31N 44°09' E 028°39'0 0.0
2018-Jul-16 19:00N 44°09' E 028°39'0 0.0
2018-Jul-16 18:30N 44°09' E 028°39'0 0.0
2018-Jul-16 18:00N 44°09' E 028°39'0 0.0
2018-Jul-16 17:30N 44°09' E 028°39'0 0.0
2018-Jul-16 17:00N 44°09' E 028°39'0 0.0
2018-Jul-16 16:30N 44°09' E 028°39'0 0.0
2018-Jul-16 16:00N 44°09' E 028°39'0 0.0
2018-Jul-16 15:30N 44°09' E 028°39'0 0.0
2018-Jul-16 15:00N 44°09' E 028°39'0 0.0
2018-Jul-16 14:30N 44°09' E 028°39'0 0.0
2018-Jul-16 14:00N 44°09' E 028°39'0 0.0
2018-Jul-16 13:30N 44°09' E 028°39'0 0.0
2018-Jul-16 13:00N 44°09' E 028°39'0 0.0
2018-Jul-16 12:30N 44°09' E 028°39'0 0.0
2018-Jul-16 12:00N 44°09' E 028°39'0 0.0
2018-Jul-16 11:30N 44°09' E 028°39'1 2.2
2018-Jul-16 11:00N 44°09' E 028°40'2 3.3
2018-Jul-16 10:31N 44°07' E 028°39'0 0.0
2018-Jul-16 10:00N 44°07' E 028°39'0 0.0
2018-Jul-16 09:30N 44°07' E 028°39'0 0.1
2018-Jul-16 09:00N 44°07' E 028°39'1 2.5
2018-Jul-16 08:30N 44°06' E 028°38'0 0.9
2018-Jul-16 07:59N 44°06' E 028°37'0 1.0
2018-Jul-16 07:30N 44°06' E 028°37'0 0.0
2018-Jul-16 07:00N 44°06' E 028°37'0 0.0
2018-Jul-16 06:30N 44°06' E 028°37'1 1.7
2018-Jul-16 06:00N 44°06' E 028°35'2 3.9
2018-Jul-16 05:30N 44°06' E 028°33'6 3.3
2018-Jul-16 03:44N 44°09' E 028°26'1 3.9
2018-Jul-16 03:28N 44°10' E 028°25'1 3.1
2018-Jul-16 03:00N 44°11' E 028°24'0 0.0
2018-Jul-16 02:30N 44°11' E 028°24'0 0.0
2018-Jul-16 02:00N 44°11' E 028°24'0 0.0
2018-Jul-16 01:30N 44°11' E 028°24'0 0.0
2018-Jul-16 00:59N 44°11' E 028°24'0 0.0
2018-Jul-16 00:30N 44°11' E 028°24'0 0.0
2018-Jul-16 00:00N 44°11' E 028°24'0 0.0
2018-Jul-15 23:30N 44°11' E 028°24'0 0.0
2018-Jul-15 22:59N 44°11' E 028°24'0 0.0
2018-Jul-15 22:30N 44°11' E 028°24'0 0.0
2018-Jul-15 22:00N 44°11' E 028°24'0 0.0
2018-Jul-15 21:29N 44°11' E 028°24'0 0.0
2018-Jul-15 21:00N 44°11' E 028°24'0 0.0
2018-Jul-15 20:30N 44°11' E 028°24'0 0.0
2018-Jul-15 19:58N 44°11' E 028°24'0 0.0
2018-Jul-15 19:30N 44°11' E 028°24'0 0.0
2018-Jul-15 19:00N 44°11' E 028°24'0 0.0
2018-Jul-15 18:30N 44°11' E 028°24'0 0.0
2018-Jul-15 18:00N 44°11' E 028°24'0 0.0
2018-Jul-15 17:30N 44°11' E 028°24'0 0.0
2018-Jul-15 16:59N 44°11' E 028°24'1 1.2
2018-Jul-15 15:49N 44°12' E 028°23'1 3.8
2018-Jul-15 15:30N 44°14' E 028°22'2 4.0
2018-Jul-15 15:00N 44°15' E 028°21'2 3.9
2018-Jul-15 14:30N 44°15' E 028°18'2 3.9
2018-Jul-15 13:59N 44°15' E 028°15'6 3.9
2018-Jul-15 12:26N 44°16' E 028°07'  
Track history (hours):
 
Tides and Currents Weather Stations Pressure Air Temp Water Temp Dewpoint Dewpoint Depression Visibility Wind Speed Wind Dir Waves Ship Positions

Leo+barja 1556

Last reported at 2018-Jul-18 08:58 UTC. Time now 2018-Jul-18 08:59 UTC.
Position N 44°15' E 028°17'.

Length 77 m; draft 1 m.

Type: Cargo ship. MMSI: 264153204.

Date/timePositionNaut miles runAvg speedWind from/ knotsBaromVisibWave heightAir tempDewpointWater temp
2018-Jul-18 08:58N 44°15' E 028°17'3 5.6
2018-Jul-18 08:29N 44°15' E 028°21'3 5.7
2018-Jul-18 08:00N 44°13' E 028°23'9 5.1
2018-Jul-18 06:17N 44°06' E 028°31'2 7.7
2018-Jul-18 06:00N 44°06' E 028°34'2 3.3
2018-Jul-18 05:30N 44°06' E 028°36'1 1.3
2018-Jul-18 05:00N 44°06' E 028°37'2 3.4
2018-Jul-18 04:29N 44°07' E 028°39'0 0.4
2018-Jul-18 04:00N 44°07' E 028°39'1 1.8
2018-Jul-18 03:30N 44°08' E 028°39'1 2.3
2018-Jul-18 03:00N 44°10' E 028°39'0 0.0
2018-Jul-17 18:07N 44°09' E 028°39'0 0.0
2018-Jul-17 18:00N 44°09' E 028°39'0 0.0
2018-Jul-17 17:30N 44°09' E 028°39'0 0.0
2018-Jul-17 17:00N 44°09' E 028°39'0 0.0
2018-Jul-17 16:30N 44°09' E 028°39'0 0.0
2018-Jul-16 20:55N 44°09' E 028°39'0 0.0
2018-Jul-16 20:31N 44°09' E 028°39'0 0.0
2018-Jul-16 20:01N 44°09' E 028°39'0 0.0
2018-Jul-16 19:31N 44°09' E 028°39'0 0.0
2018-Jul-16 19:00N 44°09' E 028°39'0 0.0
2018-Jul-16 18:30N 44°09' E 028°39'0 0.0
2018-Jul-16 18:00N 44°09' E 028°39'0 0.0
2018-Jul-16 17:30N 44°09' E 028°39'0 0.0
2018-Jul-16 17:00N 44°09' E 028°39'0 0.0
2018-Jul-16 16:30N 44°09' E 028°39'0 0.0
2018-Jul-16 16:00N 44°09' E 028°39'0 0.0
2018-Jul-16 15:30N 44°09' E 028°39'0 0.0
2018-Jul-16 15:00N 44°09' E 028°39'0 0.0
2018-Jul-16 14:30N 44°09' E 028°39'0 0.0
2018-Jul-16 14:00N 44°09' E 028°39'0 0.0
2018-Jul-16 13:30N 44°09' E 028°39'0 0.0
2018-Jul-16 13:00N 44°09' E 028°39'0 0.0
2018-Jul-16 12:30N 44°09' E 028°39'0 0.0
2018-Jul-16 12:00N 44°09' E 028°39'0 0.0
2018-Jul-16 11:30N 44°09' E 028°39'1 2.2
2018-Jul-16 11:00N 44°09' E 028°40'2 3.3
2018-Jul-16 10:31N 44°07' E 028°39'0 0.0
2018-Jul-16 10:00N 44°07' E 028°39'0 0.0
2018-Jul-16 09:30N 44°07' E 028°39'0 0.1
2018-Jul-16 09:00N 44°07' E 028°39'1 2.5
2018-Jul-16 08:30N 44°06' E 028°38'0 0.9
2018-Jul-16 07:59N 44°06' E 028°37'0 1.0
2018-Jul-16 07:30N 44°06' E 028°37'0 0.0
2018-Jul-16 07:00N 44°06' E 028°37'0 0.0
2018-Jul-16 06:30N 44°06' E 028°37'1 1.7
2018-Jul-16 06:00N 44°06' E 028°35'2 3.9
2018-Jul-16 05:30N 44°06' E 028°33'6 3.3
2018-Jul-16 03:44N 44°09' E 028°26'1 3.9
2018-Jul-16 03:28N 44°10' E 028°25'1 3.1
2018-Jul-16 03:00N 44°11' E 028°24'0 0.0
2018-Jul-16 02:30N 44°11' E 028°24'0 0.0
2018-Jul-16 02:00N 44°11' E 028°24'0 0.0
2018-Jul-16 01:30N 44°11' E 028°24'0 0.0
2018-Jul-16 00:59N 44°11' E 028°24'0 0.0
2018-Jul-16 00:30N 44°11' E 028°24'0 0.0
2018-Jul-16 00:00N 44°11' E 028°24'0 0.0
2018-Jul-15 23:30N 44°11' E 028°24'0 0.0
2018-Jul-15 22:59N 44°11' E 028°24'0 0.0
2018-Jul-15 22:30N 44°11' E 028°24'0 0.0
2018-Jul-15 22:00N 44°11' E 028°24'0 0.0
2018-Jul-15 21:29N 44°11' E 028°24'0 0.0
2018-Jul-15 21:00N 44°11' E 028°24'0 0.0
2018-Jul-15 20:30N 44°11' E 028°24'0 0.0
2018-Jul-15 19:58N 44°11' E 028°24'0 0.0
2018-Jul-15 19:30N 44°11' E 028°24'0 0.0
2018-Jul-15 19:00N 44°11' E 028°24'0 0.0
2018-Jul-15 18:30N 44°11' E 028°24'0 0.0
2018-Jul-15 18:00N 44°11' E 028°24'0 0.0
2018-Jul-15 17:30N 44°11' E 028°24'0 0.0
2018-Jul-15 16:59N 44°11' E 028°24'1 1.2
2018-Jul-15 15:49N 44°12' E 028°23'1 3.8
2018-Jul-15 15:30N 44°14' E 028°22'2 4.0
2018-Jul-15 15:00N 44°15' E 028°21'2 3.9
2018-Jul-15 14:30N 44°15' E 028°18'2 3.9
2018-Jul-15 13:59N 44°15' E 028°15'6 3.9
2018-Jul-15 12:26N 44°16' E 028°07'  

Dump ship's entire track history